sensor_id;sensor_type;location;lat;lon;timestamp;pressure;altitude;pressure_sealevel;temperature;humidity
36932;BME280;22847;42.654;23.370;2022-09-16T00:00:57;94035.19;;;23.87;44.39
36932;BME280;22847;42.654;23.370;2022-09-16T00:03:22;94151.16;;;24.23;44.70
36932;BME280;22847;42.654;23.370;2022-09-16T00:05:52;93988.88;;;23.26;46.09
36932;BME280;22847;42.654;23.370;2022-09-16T00:08:18;94121.63;;;23.79;45.75
36932;BME280;22847;42.654;23.370;2022-09-16T00:10:46;94132.88;;;23.98;48.29
36932;BME280;22847;42.654;23.370;2022-09-16T00:13:12;94053.50;;;23.38;45.97
36932;BME280;22847;42.654;23.370;2022-09-16T00:15:46;94161.97;;;23.60;46.05
36932;BME280;22847;42.654;23.370;2022-09-16T00:18:12;93998.25;;;22.25;47.17
36932;BME280;22847;42.654;23.370;2022-09-16T00:20:45;94189.44;;;23.37;47.71
36932;BME280;22847;42.654;23.370;2022-09-16T00:23:11;94161.63;;;23.68;46.83
36932;BME280;22847;42.654;23.370;2022-09-16T00:25:37;93915.50;;;21.82;46.72
36932;BME280;22847;42.654;23.370;2022-09-16T00:28:02;94147.50;;;23.55;48.04
36932;BME280;22847;42.654;23.370;2022-09-16T00:30:27;94134.47;;;23.42;46.60
36932;BME280;22847;42.654;23.370;2022-09-16T00:32:53;94194.53;;;23.90;46.13
36932;BME280;22847;42.654;23.370;2022-09-16T00:35:18;94186.56;;;24.07;48.42
36932;BME280;22847;42.654;23.370;2022-09-16T00:37:44;94004.56;;;22.83;46.37
36932;BME280;22847;42.654;23.370;2022-09-16T00:40:09;93963.81;;;22.94;45.32
36932;BME280;22847;42.654;23.370;2022-09-16T00:42:37;94119.88;;;23.56;48.43
36932;BME280;22847;42.654;23.370;2022-09-16T00:45:12;93962.16;;;22.76;46.44
36932;BME280;22847;42.654;23.370;2022-09-16T00:47:54;94157.56;;;23.93;45.63
36932;BME280;22847;42.654;23.370;2022-09-16T00:50:36;94166.38;;;24.11;45.57
36932;BME280;22847;42.654;23.370;2022-09-16T00:53:05;94109.75;;;23.87;45.42
36932;BME280;22847;42.654;23.370;2022-09-16T00:55:33;94144.56;;;23.97;45.49
36932;BME280;22847;42.654;23.370;2022-09-16T00:58:05;94127.88;;;24.01;45.29
36932;BME280;22847;42.654;23.370;2022-09-16T01:00:34;94016.00;;;23.40;45.21
36932;BME280;22847;42.654;23.370;2022-09-16T01:02:59;94170.09;;;24.38;45.53
36932;BME280;22847;42.654;23.370;2022-09-16T01:05:25;94164.84;;;23.98;45.81
36932;BME280;22847;42.654;23.370;2022-09-16T01:07:51;94183.75;;;24.13;45.58
36932;BME280;22847;42.654;23.370;2022-09-16T01:10:21;94150.91;;;23.79;45.76
36932;BME280;22847;42.654;23.370;2022-09-16T01:12:51;94154.66;;;23.67;46.04
36932;BME280;22847;42.654;23.370;2022-09-16T01:15:18;93995.31;;;22.62;46.21
36932;BME280;22847;42.654;23.370;2022-09-16T01:21:02;94178.13;;;23.06;47.93
36932;BME280;22847;42.654;23.370;2022-09-16T01:24:09;94183.34;;;23.13;47.96
36932;BME280;22847;42.654;23.370;2022-09-16T01:32:28;94179.94;;;23.41;47.23
36932;BME280;22847;42.654;23.370;2022-09-16T01:35:10;94182.59;;;23.52;49.95
36932;BME280;22847;42.654;23.370;2022-09-16T01:37:49;94167.91;;;23.38;47.34
36932;BME280;22847;42.654;23.370;2022-09-16T01:45:40;93971.69;;;22.25;46.93
36932;BME280;22847;42.654;23.370;2022-09-16T01:56:22;94161.03;;;23.02;48.06
36932;BME280;22847;42.654;23.370;2022-09-16T02:01:33;94123.88;;;23.19;47.71
36932;BME280;22847;42.654;23.370;2022-09-16T02:04:06;94149.59;;;23.02;48.08
36932;BME280;22847;42.654;23.370;2022-09-16T02:06:34;94117.22;;;22.58;48.92
36932;BME280;22847;42.654;23.370;2022-09-16T02:09:10;94139.78;;;22.91;48.22
36932;BME280;22847;42.654;23.370;2022-09-16T02:11:38;94165.56;;;23.42;48.14
36932;BME280;22847;42.654;23.370;2022-09-16T02:14:05;94157.00;;;23.63;46.95
36932;BME280;22847;42.654;23.370;2022-09-16T02:16:52;94149.53;;;23.48;47.15
36932;BME280;22847;42.654;23.370;2022-09-16T02:19:23;94104.13;;;23.15;47.02
36932;BME280;22847;42.654;23.370;2022-09-16T02:21:53;94152.25;;;23.02;47.81
36932;BME280;22847;42.654;23.370;2022-09-16T02:24:21;94180.50;;;23.43;48.88
36932;BME280;22847;42.654;23.370;2022-09-16T02:26:55;94136.31;;;23.42;46.80
36932;BME280;22847;42.654;23.370;2022-09-16T02:29:24;94082.72;;;23.10;47.07
36932;BME280;22847;42.654;23.370;2022-09-16T02:31:53;93949.19;;;22.28;46.94
36932;BME280;22847;42.654;23.370;2022-09-16T02:34:29;94154.13;;;23.53;46.34
36932;BME280;22847;42.654;23.370;2022-09-16T02:37:02;94180.91;;;23.75;46.24
36932;BME280;22847;42.654;23.370;2022-09-16T02:39:31;94192.31;;;23.87;46.18
36932;BME280;22847;42.654;23.370;2022-09-16T02:42:01;93982.53;;;22.47;46.74
36932;BME280;22847;42.654;23.370;2022-09-16T02:44:28;94175.28;;;23.60;46.11
36932;BME280;22847;42.654;23.370;2022-09-16T02:52:35;94174.13;;;23.95;50.20
36932;BME280;22847;42.654;23.370;2022-09-16T02:57:48;94172.72;;;23.93;46.19
36932;BME280;22847;42.654;23.370;2022-09-16T03:00:14;94144.50;;;23.64;49.43
36932;BME280;22847;42.654;23.370;2022-09-16T03:02:39;94205.41;;;23.25;48.28
36932;BME280;22847;42.654;23.370;2022-09-16T03:05:05;94188.41;;;23.49;47.81
36932;BME280;22847;42.654;23.370;2022-09-16T03:07:31;94138.69;;;23.27;47.92
36932;BME280;22847;42.654;23.370;2022-09-16T03:09:57;93982.66;;;22.41;47.95
36932;BME280;22847;42.654;23.370;2022-09-16T03:20:43;94222.69;;;23.74;48.47
36932;BME280;22847;42.654;23.370;2022-09-16T03:26:19;94203.25;;;23.74;48.04
36932;BME280;22847;42.654;23.370;2022-09-16T03:31:31;94227.09;;;23.80;49.40
36932;BME280;22847;42.654;23.370;2022-09-16T03:36:50;94187.69;;;23.42;49.00
36932;BME280;22847;42.654;23.370;2022-09-16T03:39:17;94194.22;;;23.23;48.93
36932;BME280;22847;42.654;23.370;2022-09-16T03:41:43;93979.06;;;21.89;48.90
36932;BME280;22847;42.654;23.370;2022-09-16T03:44:09;94173.63;;;23.19;48.70
36932;BME280;22847;42.654;23.370;2022-09-16T03:46:35;94187.94;;;23.29;48.83
36932;BME280;22847;42.654;23.370;2022-09-16T03:49:00;94169.06;;;23.42;48.73
36932;BME280;22847;42.654;23.370;2022-09-16T03:51:26;94166.13;;;23.04;48.45
36932;BME280;22847;42.654;23.370;2022-09-16T03:53:52;93980.44;;;21.79;50.83
36932;BME280;22847;42.654;23.370;2022-09-16T03:56:18;94175.72;;;23.17;49.93
36932;BME280;22847;42.654;23.370;2022-09-16T03:58:45;94116.91;;;22.78;49.15
36932;BME280;22847;42.654;23.370;2022-09-16T04:01:11;93965.47;;;21.73;49.38
36932;BME280;22847;42.654;23.370;2022-09-16T04:03:38;94168.75;;;23.27;49.79
36932;BME280;22847;42.654;23.370;2022-09-16T04:06:04;94153.19;;;22.96;49.43
36932;BME280;22847;42.654;23.370;2022-09-16T04:08:29;93974.09;;;21.80;49.75
36932;BME280;22847;42.654;23.370;2022-09-16T04:11:00;94051.63;;;22.36;49.41
36932;BME280;22847;42.654;23.370;2022-09-16T04:13:28;94210.25;;;23.28;49.46
36932;BME280;22847;42.654;23.370;2022-09-16T04:15:54;94222.63;;;23.34;50.16
36932;BME280;22847;42.654;23.370;2022-09-16T04:18:20;94051.06;;;22.10;50.32
36932;BME280;22847;42.654;23.370;2022-09-16T04:20:45;94029.81;;;22.10;50.20
36932;BME280;22847;42.654;23.370;2022-09-16T04:23:11;94017.34;;;22.11;49.72
36932;BME280;22847;42.654;23.370;2022-09-16T04:25:36;94221.38;;;23.25;49.73
36932;BME280;22847;42.654;23.370;2022-09-16T04:28:02;94217.91;;;23.36;49.69
36932;BME280;22847;42.654;23.370;2022-09-16T04:30:28;94235.25;;;23.39;49.63
36932;BME280;22847;42.654;23.370;2022-09-16T04:32:54;94212.22;;;23.33;49.20
36932;BME280;22847;42.654;23.370;2022-09-16T04:35:20;94257.59;;;23.49;49.50
36932;BME280;22847;42.654;23.370;2022-09-16T04:37:47;94221.38;;;23.37;49.36
36932;BME280;22847;42.654;23.370;2022-09-16T04:40:12;94218.72;;;23.48;49.20
36932;BME280;22847;42.654;23.370;2022-09-16T04:42:37;94213.72;;;23.52;49.16
36932;BME280;22847;42.654;23.370;2022-09-16T04:45:03;94189.66;;;23.35;48.83
36932;BME280;22847;42.654;23.370;2022-09-16T04:47:29;94210.34;;;23.56;48.82
36932;BME280;22847;42.654;23.370;2022-09-16T04:49:55;94251.88;;;23.69;48.62
36932;BME280;22847;42.654;23.370;2022-09-16T04:52:20;94226.75;;;23.77;48.34
36932;BME280;22847;42.654;23.370;2022-09-16T04:54:46;94216.28;;;23.87;48.45
36932;BME280;22847;42.654;23.370;2022-09-16T04:57:11;94191.50;;;24.26;47.03
36932;BME280;22847;42.654;23.370;2022-09-16T04:59:37;94231.56;;;24.65;47.25
36932;BME280;22847;42.654;23.370;2022-09-16T05:02:02;94222.06;;;25.02;46.44
36932;BME280;22847;42.654;23.370;2022-09-16T05:04:28;94256.50;;;25.97;44.21
36932;BME280;22847;42.654;23.370;2022-09-16T05:06:53;94055.41;;;25.80;42.03
36932;BME280;22847;42.654;23.370;2022-09-16T05:09:19;94169.97;;;27.31;39.89
36932;BME280;22847;42.654;23.370;2022-09-16T05:11:47;94219.00;;;28.86;37.35
36932;BME280;22847;42.654;23.370;2022-09-16T05:14:15;94220.84;;;29.26;36.12
36932;BME280;22847;42.654;23.370;2022-09-16T05:16:42;94218.94;;;29.42;35.88
36932;BME280;22847;42.654;23.370;2022-09-16T05:19:10;94075.28;;;29.19;34.65
36932;BME280;22847;42.654;23.370;2022-09-16T05:21:37;94164.59;;;30.68;33.31
36932;BME280;22847;42.654;23.370;2022-09-16T05:24:05;94204.72;;;31.32;32.71
36932;BME280;22847;42.654;23.370;2022-09-16T05:26:36;94196.94;;;32.02;31.49
36932;BME280;22847;42.654;23.370;2022-09-16T05:29:04;94180.91;;;32.35;30.67
36932;BME280;22847;42.654;23.370;2022-09-16T05:31:32;94177.47;;;32.85;30.09
36932;BME280;22847;42.654;23.370;2022-09-16T05:34:09;94161.22;;;33.50;29.07
36932;BME280;22847;42.654;23.370;2022-09-16T05:36:35;94191.16;;;33.53;29.48
36932;BME280;22847;42.654;23.370;2022-09-16T05:39:05;94166.66;;;32.85;30.25
36932;BME280;22847;42.654;23.370;2022-09-16T05:41:31;93898.44;;;31.28;30.42
36932;BME280;22847;42.654;23.370;2022-09-16T05:44:00;94073.28;;;32.14;30.79
36932;BME280;22847;42.654;23.370;2022-09-16T05:46:27;94202.81;;;31.85;32.16
36932;BME280;22847;42.654;23.370;2022-09-16T05:48:53;94148.69;;;31.06;33.34
36932;BME280;22847;42.654;23.370;2022-09-16T05:51:20;94199.66;;;30.58;34.21
36932;BME280;22847;42.654;23.370;2022-09-16T05:53:47;93985.00;;;29.33;35.01
36932;BME280;22847;42.654;23.370;2022-09-16T05:56:23;94184.72;;;30.76;34.71
36932;BME280;22847;42.654;23.370;2022-09-16T05:58:54;94197.75;;;31.03;34.67
36932;BME280;22847;42.654;23.370;2022-09-16T06:01:25;94153.84;;;31.02;34.36
36932;BME280;22847;42.654;23.370;2022-09-16T06:03:52;94015.31;;;29.93;34.26
36932;BME280;22847;42.654;23.370;2022-09-16T06:08:51;94150.81;;;30.75;32.95
36932;BME280;22847;42.654;23.370;2022-09-16T06:11:17;94152.28;;;30.18;33.54
36932;BME280;22847;42.654;23.370;2022-09-16T06:13:43;93874.09;;;27.94;33.47
36932;BME280;22847;42.654;23.370;2022-09-16T06:16:09;94186.78;;;30.06;33.75
36932;BME280;22847;42.654;23.370;2022-09-16T06:18:35;94184.72;;;30.32;32.83
36932;BME280;22847;42.654;23.370;2022-09-16T06:21:07;94172.03;;;30.42;31.75
36932;BME280;22847;42.654;23.370;2022-09-16T06:23:33;94203.16;;;30.58;32.28
36932;BME280;22847;42.654;23.370;2022-09-16T06:26:26;94176.38;;;29.79;33.15
36932;BME280;22847;42.654;23.370;2022-09-16T06:28:52;94169.97;;;29.70;33.42
36932;BME280;22847;42.654;23.370;2022-09-16T06:31:22;94175.94;;;29.57;33.56
36932;BME280;22847;42.654;23.370;2022-09-16T06:33:49;94200.88;;;29.67;33.88
36932;BME280;22847;42.654;23.370;2022-09-16T06:36:26;94119.53;;;29.52;33.40
36932;BME280;22847;42.654;23.370;2022-09-16T06:38:53;94188.78;;;29.75;33.40
36932;BME280;22847;42.654;23.370;2022-09-16T06:41:19;94177.91;;;30.05;32.96
36932;BME280;22847;42.654;23.370;2022-09-16T06:43:46;94186.09;;;30.29;31.71
36932;BME280;22847;42.654;23.370;2022-09-16T06:46:17;94182.56;;;30.39;32.14
36932;BME280;22847;42.654;23.370;2022-09-16T06:48:46;94105.84;;;29.48;32.49
36932;BME280;22847;42.654;23.370;2022-09-16T06:51:31;94178.13;;;30.14;32.08
36932;BME280;22847;42.654;23.370;2022-09-16T06:54:04;94172.31;;;29.82;33.15
36932;BME280;22847;42.654;23.370;2022-09-16T06:56:31;94171.94;;;30.08;31.99
36932;BME280;22847;42.654;23.370;2022-09-16T06:58:58;94184.22;;;29.65;32.66
36932;BME280;22847;42.654;23.370;2022-09-16T07:01:26;94186.94;;;30.25;31.34
36932;BME280;22847;42.654;23.370;2022-09-16T07:03:53;94207.47;;;30.60;31.14
36932;BME280;22847;42.654;23.370;2022-09-16T07:06:20;94191.41;;;31.17;30.42
36932;BME280;22847;42.654;23.370;2022-09-16T07:08:47;94017.97;;;30.61;29.38
36932;BME280;22847;42.654;23.370;2022-09-16T07:11:21;94049.06;;;30.48;30.49
36932;BME280;22847;42.654;23.370;2022-09-16T07:13:47;94042.09;;;30.08;31.66
36932;BME280;22847;42.654;23.370;2022-09-16T07:16:22;94179.41;;;30.99;31.40
36932;BME280;22847;42.654;23.370;2022-09-16T07:18:54;94154.63;;;30.30;32.01
36932;BME280;22847;42.654;23.370;2022-09-16T07:21:22;94165.59;;;29.94;32.53
36932;BME280;22847;42.654;23.370;2022-09-16T07:23:49;94186.75;;;30.60;31.69
36932;BME280;22847;42.654;23.370;2022-09-16T07:26:24;94193.59;;;31.15;31.23
36932;BME280;22847;42.654;23.370;2022-09-16T07:28:53;94182.59;;;30.73;31.11
36932;BME280;22847;42.654;23.370;2022-09-16T07:31:21;94134.34;;;30.47;31.53
36932;BME280;22847;42.654;23.370;2022-09-16T07:33:51;94198.44;;;30.79;31.33
36932;BME280;22847;42.654;23.370;2022-09-16T07:36:23;94040.00;;;30.34;30.64
36932;BME280;22847;42.654;23.370;2022-09-16T07:38:50;94166.78;;;31.29;30.91
36932;BME280;22847;42.654;23.370;2022-09-16T07:41:18;94155.47;;;30.98;30.20
36932;BME280;22847;42.654;23.370;2022-09-16T07:43:44;93974.44;;;30.53;30.65
36932;BME280;22847;42.654;23.370;2022-09-16T07:46:10;94172.72;;;31.78;30.57
36932;BME280;22847;42.654;23.370;2022-09-16T07:48:36;94157.19;;;31.89;30.09
36932;BME280;22847;42.654;23.370;2022-09-16T07:51:25;94112.59;;;31.78;29.82
36932;BME280;22847;42.654;23.370;2022-09-16T07:53:54;93987.06;;;29.90;31.23
36932;BME280;22847;42.654;23.370;2022-09-16T07:56:22;94147.03;;;31.10;31.29
36932;BME280;22847;42.654;23.370;2022-09-16T07:58:50;94171.41;;;30.89;31.50
36932;BME280;22847;42.654;23.370;2022-09-16T08:01:16;94097.59;;;30.95;31.31
36932;BME280;22847;42.654;23.370;2022-09-16T08:03:43;94121.09;;;30.85;31.33
36932;BME280;22847;42.654;23.370;2022-09-16T08:06:12;94157.06;;;30.99;31.24
36932;BME280;22847;42.654;23.370;2022-09-16T08:08:38;94092.88;;;30.82;31.57
36932;BME280;22847;42.654;23.370;2022-09-16T08:11:05;94138.25;;;30.94;30.90
36932;BME280;22847;42.654;23.370;2022-09-16T08:13:32;94106.00;;;30.21;31.93
36932;BME280;22847;42.654;23.370;2022-09-16T08:16:20;94110.09;;;30.08;32.06
36932;BME280;22847;42.654;23.370;2022-09-16T08:18:47;94117.78;;;30.30;32.53
36932;BME280;22847;42.654;23.370;2022-09-16T08:21:15;94160.94;;;30.54;31.80
36932;BME280;22847;42.654;23.370;2022-09-16T08:23:41;93922.94;;;28.91;32.26
36932;BME280;22847;42.654;23.370;2022-09-16T08:26:09;93940.56;;;29.51;31.81
36932;BME280;22847;42.654;23.370;2022-09-16T08:28:39;94119.25;;;31.14;31.97
36932;BME280;22847;42.654;23.370;2022-09-16T08:31:05;94126.63;;;31.27;30.98
36932;BME280;22847;42.654;23.370;2022-09-16T08:33:31;94111.84;;;31.25;31.60
36932;BME280;22847;42.654;23.370;2022-09-16T08:35:58;94093.97;;;31.10;31.31
36932;BME280;22847;42.654;23.370;2022-09-16T08:38:24;94089.28;;;30.63;31.78
36932;BME280;22847;42.654;23.370;2022-09-16T08:40:54;94155.44;;;30.30;33.46
36932;BME280;22847;42.654;23.370;2022-09-16T08:46:04;94056.00;;;29.76;32.59
36932;BME280;22847;42.654;23.370;2022-09-16T08:48:50;94107.50;;;29.98;32.75
36932;BME280;22847;42.654;23.370;2022-09-16T08:51:18;94102.13;;;29.34;34.03
36932;BME280;22847;42.654;23.370;2022-09-16T08:54:00;94078.84;;;29.68;34.48
36932;BME280;22847;42.654;23.370;2022-09-16T08:56:29;94116.44;;;29.89;33.82
36932;BME280;22847;42.654;23.370;2022-09-16T08:58:58;93892.84;;;27.94;35.31
36932;BME280;22847;42.654;23.370;2022-09-16T09:01:46;94097.47;;;29.50;34.95
36932;BME280;22847;42.654;23.370;2022-09-16T09:04:13;94094.31;;;29.38;34.51
36932;BME280;22847;42.654;23.370;2022-09-16T09:06:46;94105.38;;;29.31;35.61
36932;BME280;22847;42.654;23.370;2022-09-16T09:31:35;94109.00;;;29.60;34.93
36932;BME280;22847;42.654;23.370;2022-09-16T09:42:24;94095.94;;;29.39;35.33
36932;BME280;22847;42.654;23.370;2022-09-16T09:45:03;93916.94;;;28.29;35.95
36932;BME280;22847;42.654;23.370;2022-09-16T09:47:41;94059.00;;;28.90;35.69
36932;BME280;22847;42.654;23.370;2022-09-16T09:52:50;94094.63;;;29.31;35.46
36932;BME280;22847;42.654;23.370;2022-09-16T09:55:20;94112.06;;;29.23;36.74
36932;BME280;22847;42.654;23.370;2022-09-16T10:00:17;94136.06;;;28.79;37.21
36932;BME280;22847;42.654;23.370;2022-09-16T10:02:44;94101.41;;;28.88;37.39
36932;BME280;22847;42.654;23.370;2022-09-16T10:07:45;94132.81;;;28.57;37.83
36932;BME280;22847;42.654;23.370;2022-09-16T10:10:14;94152.13;;;28.34;38.46
36932;BME280;22847;42.654;23.370;2022-09-16T10:12:40;94165.53;;;28.29;38.70
36932;BME280;22847;42.654;23.370;2022-09-16T10:15:34;93987.75;;;26.90;39.72
36932;BME280;22847;42.654;23.370;2022-09-16T10:18:00;94199.50;;;28.08;39.64
36932;BME280;22847;42.654;23.370;2022-09-16T10:20:33;94214.16;;;27.80;40.37
36932;BME280;22847;42.654;23.370;2022-09-16T10:23:05;94045.78;;;26.43;41.53
36932;BME280;22847;42.654;23.370;2022-09-16T10:25:33;94042.97;;;25.42;43.10
36932;BME280;22847;42.654;23.370;2022-09-16T10:28:04;94261.28;;;26.44;43.99
36932;BME280;22847;42.654;23.370;2022-09-16T10:30:45;94286.25;;;26.28;47.13
36932;BME280;22847;42.654;23.370;2022-09-16T10:33:14;94278.78;;;25.86;48.64
36932;BME280;22847;42.654;23.370;2022-09-16T10:35:51;94330.38;;;26.08;49.94
36932;BME280;22847;42.654;23.370;2022-09-16T10:38:21;94197.41;;;24.78;50.12
36932;BME280;22847;42.654;23.370;2022-09-16T10:43:17;94331.53;;;25.24;55.14
36932;BME280;22847;42.654;23.370;2022-09-16T10:45:49;94347.88;;;25.11;54.07
36932;BME280;22847;42.654;23.370;2022-09-16T10:48:17;94357.59;;;25.17;55.55
36932;BME280;22847;42.654;23.370;2022-09-16T10:50:58;94177.38;;;24.14;56.38
36932;BME280;22847;42.654;23.370;2022-09-16T10:53:35;94351.81;;;25.08;55.90
36932;BME280;22847;42.654;23.370;2022-09-16T10:56:04;94360.00;;;25.18;53.84
36932;BME280;22847;42.654;23.370;2022-09-16T10:58:30;94360.66;;;24.80;55.56
36932;BME280;22847;42.654;23.370;2022-09-16T11:06:21;94297.50;;;24.53;57.13
36932;BME280;22847;42.654;23.370;2022-09-16T11:14:29;94056.97;;;23.39;54.52
36932;BME280;22847;42.654;23.370;2022-09-16T11:23:12;94214.53;;;24.99;51.23
36932;BME280;22847;42.654;23.370;2022-09-16T11:45:25;94119.22;;;27.04;40.51
36932;BME280;22847;42.654;23.370;2022-09-16T11:50:43;94127.94;;;28.09;40.49
36932;BME280;22847;42.654;23.370;2022-09-16T11:56:01;94134.41;;;28.28;42.16
36932;BME280;22847;42.654;23.370;2022-09-16T12:00:58;94082.22;;;26.54;50.79
36932;BME280;22847;42.654;23.370;2022-09-16T12:04:06;94131.50;;;26.63;50.71
36932;BME280;22847;42.654;23.370;2022-09-16T12:06:49;94136.97;;;26.78;48.54
36932;BME280;22847;42.654;23.370;2022-09-16T12:09:22;93940.88;;;25.89;47.55
36932;BME280;22847;42.654;23.370;2022-09-16T12:11:53;94120.09;;;26.78;46.08
36932;BME280;22847;42.654;23.370;2022-09-16T12:14:25;94045.19;;;26.36;45.67
36932;BME280;22847;42.654;23.370;2022-09-16T12:16:59;94007.91;;;26.56;45.06
36932;BME280;22847;42.654;23.370;2022-09-16T12:19:29;94035.31;;;26.78;44.58
36932;BME280;22847;42.654;23.370;2022-09-16T12:21:59;94139.75;;;27.40;43.99
36932;BME280;22847;42.654;23.370;2022-09-16T12:27:08;94143.75;;;27.43;45.06
36932;BME280;22847;42.654;23.370;2022-09-16T12:29:46;94188.16;;;27.34;45.72
36932;BME280;22847;42.654;23.370;2022-09-16T12:32:45;94168.41;;;27.40;45.37
36932;BME280;22847;42.654;23.370;2022-09-16T12:35:39;94156.78;;;26.82;47.11
36932;BME280;22847;42.654;23.370;2022-09-16T12:38:17;94162.50;;;26.91;48.01
36932;BME280;22847;42.654;23.370;2022-09-16T12:43:46;94145.66;;;26.95;48.19
36932;BME280;22847;42.654;23.370;2022-09-16T12:57:46;94229.16;;;26.66;49.78
36932;BME280;22847;42.654;23.370;2022-09-16T13:00:20;94217.00;;;26.85;49.40
36932;BME280;22847;42.654;23.370;2022-09-16T13:02:53;94227.25;;;26.66;49.35
36932;BME280;22847;42.654;23.370;2022-09-16T13:05:28;94209.66;;;26.43;49.29
36932;BME280;22847;42.654;23.370;2022-09-16T13:07:57;94152.03;;;26.26;49.52
36932;BME280;22847;42.654;23.370;2022-09-16T13:10:29;94264.94;;;26.86;49.39
36932;BME280;22847;42.654;23.370;2022-09-16T13:12:58;94239.41;;;27.05;49.48
36932;BME280;22847;42.654;23.370;2022-09-16T13:15:28;94079.06;;;25.66;49.11
36932;BME280;22847;42.654;23.370;2022-09-16T13:17:54;94269.53;;;26.91;49.79
36932;BME280;22847;42.654;23.370;2022-09-16T13:20:36;94281.91;;;26.75;50.26
36932;BME280;22847;42.654;23.370;2022-09-16T13:23:10;94267.84;;;26.85;50.09
36932;BME280;22847;42.654;23.370;2022-09-16T13:26:10;94262.25;;;26.86;50.21
36932;BME280;22847;42.654;23.370;2022-09-16T13:28:40;94107.69;;;25.76;50.58
36932;BME280;22847;42.654;23.370;2022-09-16T13:33:47;94252.91;;;26.13;53.70
36932;BME280;22847;42.654;23.370;2022-09-16T13:38:45;94243.53;;;26.33;53.32
36932;BME280;22847;42.654;23.370;2022-09-16T13:41:26;94069.91;;;25.62;53.45
36932;BME280;22847;42.654;23.370;2022-09-16T13:43:53;94219.06;;;26.46;53.82
36932;BME280;22847;42.654;23.370;2022-09-16T13:49:02;94160.97;;;26.36;54.21
36932;BME280;22847;42.654;23.370;2022-09-16T13:51:38;94075.63;;;26.03;53.80
36932;BME280;22847;42.654;23.370;2022-09-16T13:54:18;94056.25;;;26.17;53.91
36932;BME280;22847;42.654;23.370;2022-09-16T13:57:25;94113.69;;;26.79;53.66
36932;BME280;22847;42.654;23.370;2022-09-16T14:00:14;94127.34;;;26.82;53.34
36932;BME280;22847;42.654;23.370;2022-09-16T14:11:32;94096.97;;;26.56;52.96
36932;BME280;22847;42.654;23.370;2022-09-16T14:14:06;94010.72;;;26.02;52.21
36932;BME280;22847;42.654;23.370;2022-09-16T14:16:34;94119.50;;;26.34;53.26
36932;BME280;22847;42.654;23.370;2022-09-16T14:19:21;94197.81;;;25.86;55.50
36932;BME280;22847;42.654;23.370;2022-09-16T14:22:04;94190.16;;;25.89;55.33
36932;BME280;22847;42.654;23.370;2022-09-16T14:24:40;94142.81;;;25.63;55.19
36932;BME280;22847;42.654;23.370;2022-09-16T14:27:28;94003.03;;;25.04;54.63
36932;BME280;22847;42.654;23.370;2022-09-16T14:30:02;94201.16;;;26.19;55.11
36932;BME280;22847;42.654;23.370;2022-09-16T14:32:31;94160.03;;;25.99;55.11
36932;BME280;22847;42.654;23.370;2022-09-16T14:35:03;94010.88;;;25.37;54.64
36932;BME280;22847;42.654;23.370;2022-09-16T14:37:33;93982.63;;;25.41;53.95
36932;BME280;22847;42.654;23.370;2022-09-16T14:40:13;94121.28;;;26.23;54.28
36932;BME280;22847;42.654;23.370;2022-09-16T14:42:55;94129.97;;;26.13;54.99
36932;BME280;22847;42.654;23.370;2022-09-16T14:45:22;94134.63;;;25.69;56.49
36932;BME280;22847;42.654;23.370;2022-09-16T14:47:48;94168.38;;;26.02;55.90
36932;BME280;22847;42.654;23.370;2022-09-16T14:50:22;93981.63;;;24.77;56.26
36932;BME280;22847;42.654;23.370;2022-09-16T14:52:56;93985.50;;;25.08;54.31
36932;BME280;22847;42.654;23.370;2022-09-16T14:55:24;94144.09;;;26.36;54.36
36932;BME280;22847;42.654;23.370;2022-09-16T14:57:50;93938.06;;;24.88;55.76
36932;BME280;22847;42.654;23.370;2022-09-16T15:00:17;94120.41;;;25.64;56.09
36932;BME280;22847;42.654;23.370;2022-09-16T15:05:48;94170.41;;;25.95;55.46
36932;BME280;22847;42.654;23.370;2022-09-16T15:10:54;94139.91;;;25.64;56.90
36932;BME280;22847;42.654;23.370;2022-09-16T15:13:29;94141.19;;;26.10;56.12
36932;BME280;22847;42.654;23.370;2022-09-16T15:16:17;94112.16;;;25.65;56.56
36932;BME280;22847;42.654;23.370;2022-09-16T15:19:03;94179.44;;;25.67;56.91
36932;BME280;22847;42.654;23.370;2022-09-16T15:21:32;94159.78;;;25.73;57.28
36932;BME280;22847;42.654;23.370;2022-09-16T15:24:00;94160.56;;;25.74;56.61
36932;BME280;22847;42.654;23.370;2022-09-16T15:26:39;93943.88;;;24.63;55.83
36932;BME280;22847;42.654;23.370;2022-09-16T15:29:29;94124.00;;;26.01;55.69
36932;BME280;22847;42.654;23.370;2022-09-16T15:32:06;94083.81;;;25.91;55.57
36932;BME280;22847;42.654;23.370;2022-09-16T15:34:38;94019.13;;;25.84;54.50
36932;BME280;22847;42.654;23.370;2022-09-16T15:37:04;94062.97;;;26.20;53.92
36932;BME280;22847;42.654;23.370;2022-09-16T15:39:31;94064.34;;;25.96;54.05
36932;BME280;22847;42.654;23.370;2022-09-16T15:44:55;94058.84;;;24.67;60.23
36932;BME280;22847;42.654;23.370;2022-09-16T15:47:33;93951.31;;;24.61;57.68
36932;BME280;22847;42.654;23.370;2022-09-16T15:50:12;94046.91;;;25.35;56.18
36932;BME280;22847;42.654;23.370;2022-09-16T15:52:59;94052.28;;;25.61;55.99
36932;BME280;22847;42.654;23.370;2022-09-16T15:58:32;94066.75;;;25.44;56.29
36932;BME280;22847;42.654;23.370;2022-09-16T16:03:55;94059.34;;;25.51;56.53
36932;BME280;22847;42.654;23.370;2022-09-16T16:06:42;94067.13;;;25.52;56.82
36932;BME280;22847;42.654;23.370;2022-09-16T16:11:55;94097.00;;;25.06;58.06
36932;BME280;22847;42.654;23.370;2022-09-16T16:14:21;94056.47;;;25.30;57.03
36932;BME280;22847;42.654;23.370;2022-09-16T16:16:49;94031.16;;;25.11;57.69
36932;BME280;22847;42.654;23.370;2022-09-16T16:19:15;93840.63;;;23.55;59.77
36932;BME280;22847;42.654;23.370;2022-09-16T16:21:41;93901.22;;;24.20;60.01